createdAt,value
2022-12-03T00:00:59.139Z,101541.48
2022-12-03T00:06:00.447Z,101538.70
2022-12-03T00:11:01.553Z,101542.55
2022-12-03T00:16:02.819Z,101539.09
2022-12-03T00:21:04.132Z,101535.16
2022-12-03T00:26:05.333Z,101527.70
2022-12-03T00:31:06.472Z,101522.88
2022-12-03T00:36:08.219Z,101521.77
2022-12-03T00:41:09.265Z,101523.85
2022-12-03T00:46:11.086Z,101523.42
2022-12-03T00:51:12.219Z,101523.27
2022-12-03T00:56:13.555Z,101514.80
2022-12-03T01:01:15.017Z,101514.89
2022-12-03T01:06:16.467Z,101513.10
2022-12-03T01:11:36.373Z,101512.61
2022-12-03T01:16:38.953Z,101506.37
2022-12-03T01:21:40.789Z,101500.25
2022-12-03T01:26:42.147Z,101498.65
2022-12-03T01:32:02.064Z,101503.69
2022-12-03T01:37:03.573Z,101500.48
2022-12-03T01:42:06.179Z,101499.66
2022-12-03T01:47:17.446Z,101497.66
2022-12-03T01:52:23.466Z,101494.80
2022-12-03T01:57:37.030Z,101493.58
2022-12-03T02:02:38.650Z,101493.38
2022-12-03T02:07:40.248Z,101489.30
2022-12-03T02:12:46.608Z,101484.32
2022-12-03T02:17:48.059Z,101484.00
2022-12-03T02:23:13.309Z,101480.06
2022-12-03T02:28:14.476Z,101478.88
2022-12-03T02:33:15.907Z,101479.02
2022-12-03T02:38:20.817Z,101469.37
2022-12-03T02:43:22.942Z,101466.83
2022-12-03T02:48:35.010Z,101464.53
2022-12-03T02:53:43.682Z,101463.83
2022-12-03T02:58:47.677Z,101461.08
2022-12-03T03:03:50.388Z,101460.38
2022-12-03T03:08:51.939Z,101461.39
2022-12-03T03:13:53.338Z,101459.30
2022-12-03T03:18:54.723Z,101459.52
2022-12-03T03:23:55.785Z,101457.13
2022-12-03T03:28:59.206Z,101455.58
2022-12-03T03:34:00.470Z,101455.61
2022-12-03T03:39:04.188Z,101453.33
2022-12-03T03:44:07.219Z,101447.63
2022-12-03T03:49:09.814Z,101444.95
2022-12-03T03:54:11.760Z,101441.48
2022-12-03T03:59:13.867Z,101445.67
2022-12-03T04:04:20.960Z,101436.57
2022-12-03T04:09:22.083Z,101440.42
2022-12-03T04:14:23.217Z,101443.70
2022-12-03T04:19:24.629Z,101441.86
2022-12-03T04:24:25.665Z,101433.76
2022-12-03T04:29:26.967Z,101436.13
2022-12-03T04:34:46.938Z,101435.12
2022-12-03T04:39:48.165Z,101428.45
2022-12-03T04:44:49.445Z,101427.31
2022-12-03T04:49:51.248Z,101424.55
2022-12-03T04:54:52.786Z,101425.11
2022-12-03T04:59:54.095Z,101426.42
2022-12-03T05:04:55.380Z,101420.83
2022-12-03T05:09:57.085Z,101422.30
2022-12-03T05:14:58.436Z,101419.70
2022-12-03T05:20:18.338Z,101423.40
2022-12-03T05:25:19.622Z,101423.56
2022-12-03T05:30:21.794Z,101423.83
2022-12-03T05:35:23.373Z,101414.99
2022-12-03T05:40:24.932Z,101415.94
2022-12-03T05:45:27.823Z,101411.52
2022-12-03T05:50:33.091Z,101413.48
2022-12-03T05:55:34.373Z,101409.98
2022-12-03T06:00:42.740Z,101406.86
2022-12-03T06:05:45.322Z,101408.77
2022-12-03T06:10:46.744Z,101408.15
2022-12-03T06:15:47.854Z,101405.62
2022-12-03T06:20:49.498Z,101409.56
2022-12-03T06:25:50.557Z,101409.13
2022-12-03T06:30:51.607Z,101410.54
2022-12-03T06:35:52.902Z,101412.89
2022-12-03T06:40:53.887Z,101409.02
2022-12-03T06:45:54.966Z,101408.34
2022-12-03T06:50:55.982Z,101402.83
2022-12-03T06:55:57.400Z,101399.40
2022-12-03T07:00:58.542Z,101400.16
2022-12-03T07:05:59.658Z,101397.36
2022-12-03T07:11:00.789Z,101395.36
2022-12-03T07:16:02.003Z,101391.55
2022-12-03T07:21:03.200Z,101394.02
2022-12-03T07:26:04.925Z,101392.19
2022-12-03T07:31:06.063Z,101393.02
2022-12-03T07:36:08.894Z,101394.94
2022-12-03T07:41:10.074Z,101392.49
2022-12-03T07:46:11.325Z,101387.35
2022-12-03T07:51:15.256Z,101386.04
2022-12-03T07:56:16.997Z,101389.69
2022-12-03T08:01:18.202Z,101384.33
2022-12-03T08:06:19.500Z,101384.23
2022-12-03T08:11:20.599Z,101386.39
2022-12-03T08:16:22.047Z,101391.40
2022-12-03T08:21:23.276Z,101400.46
2022-12-03T08:26:25.576Z,101403.13
2022-12-03T08:31:33.671Z,101398.30
2022-12-03T08:36:35.705Z,101395.56
2022-12-03T08:41:54.730Z,101395.20
2022-12-03T08:47:18.961Z,101387.86
2022-12-03T08:52:22.123Z,101385.84
2022-12-03T08:57:30.849Z,101388.91
2022-12-03T09:02:33.619Z,101384.80
2022-12-03T09:07:34.901Z,101385.67
2022-12-03T09:12:36.183Z,101385.67
2022-12-03T09:17:37.347Z,101383.27
2022-12-03T09:22:38.581Z,101383.05
2022-12-03T09:27:40.749Z,101383.38
2022-12-03T09:32:42.137Z,101383.58
2022-12-03T09:37:43.268Z,101383.02
2022-12-03T09:42:45.101Z,101379.52
2022-12-03T09:47:48.737Z,101373.08
2022-12-03T09:52:54.037Z,101378.20
2022-12-03T09:57:56.598Z,101376.64
2022-12-03T10:03:02.089Z,101373.86
2022-12-03T10:08:06.143Z,101371.19
2022-12-03T10:13:11.970Z,101370.55
2022-12-03T10:18:20.822Z,101363.83
2022-12-03T10:23:28.094Z,101360.50
2022-12-03T10:28:38.466Z,101360.25
2022-12-03T10:33:46.421Z,101357.46
2022-12-03T10:39:07.042Z,101355.98
2022-12-03T10:44:21.325Z,101356.27
2022-12-03T10:49:22.906Z,101352.91
2022-12-03T10:54:25.379Z,101349.05
2022-12-03T10:59:33.202Z,101347.65
2022-12-03T11:04:36.081Z,101346.14
2022-12-03T11:09:38.291Z,101343.70
2022-12-03T11:15:05.436Z,101345.02
2022-12-03T11:20:29.694Z,101338.16
2022-12-03T11:25:49.598Z,101336.11
2022-12-03T11:30:50.700Z,101332.13
2022-12-03T11:36:12.002Z,101323.95
2022-12-03T11:41:14.503Z,101318.59
2022-12-03T11:46:15.642Z,101310.13
2022-12-03T11:51:20.603Z,101309.18
2022-12-03T11:56:28.436Z,101306.02
2022-12-03T12:01:38.606Z,101305.27
2022-12-03T12:06:42.667Z,101295.14
2022-12-03T12:11:43.808Z,101297.89
2022-12-03T12:16:49.874Z,101297.88
2022-12-03T12:21:52.998Z,101294.12
2022-12-03T12:26:55.478Z,101289.88
2022-12-03T12:32:08.207Z,101290.09
2022-12-03T12:37:28.117Z,101287.65
2022-12-03T12:42:30.895Z,101292.02
2022-12-03T12:47:38.089Z,101289.55
2022-12-03T12:52:50.833Z,101289.50
2022-12-03T12:57:52.389Z,101288.95
2022-12-03T13:02:59.244Z,101288.98
2022-12-03T13:08:02.742Z,101294.64
2022-12-03T13:13:32.041Z,101290.85
2022-12-03T13:18:36.140Z,101286.11
2022-12-03T13:23:38.638Z,101283.41
2022-12-03T13:28:40.993Z,101282.45
2022-12-03T13:33:42.280Z,101282.39
2022-12-03T13:38:47.160Z,101277.86
2022-12-03T13:43:49.354Z,101279.01
2022-12-03T13:48:50.427Z,101282.02
2022-12-03T13:53:52.106Z,101279.83
2022-12-03T13:58:54.994Z,101278.15
2022-12-03T14:03:56.223Z,101277.15
2022-12-03T14:08:57.327Z,101282.95
2022-12-03T14:13:58.336Z,101282.31
2022-12-03T14:18:59.418Z,101289.10
2022-12-03T14:24:00.522Z,101296.45
2022-12-03T14:29:05.857Z,101293.04
2022-12-03T14:34:09.700Z,101289.79
2022-12-03T14:39:10.871Z,101289.55
2022-12-03T14:44:12.016Z,101288.04
2022-12-03T14:49:13.903Z,101288.48
2022-12-03T14:54:15.103Z,101284.73
2022-12-03T14:59:16.089Z,101279.59
2022-12-03T15:04:17.406Z,101273.59
2022-12-03T15:09:18.925Z,101266.53
2022-12-03T15:14:20.040Z,101262.66
2022-12-03T15:19:21.081Z,101259.04
2022-12-03T15:24:22.137Z,101265.98
2022-12-03T15:29:23.753Z,101271.20
2022-12-03T15:34:24.814Z,101273.63
2022-12-03T15:39:26.333Z,101277.02
2022-12-03T15:44:27.395Z,101273.19
2022-12-03T15:49:28.401Z,101275.37
2022-12-03T15:54:29.792Z,101278.09
2022-12-03T15:59:31.122Z,101277.82
2022-12-03T16:04:32.177Z,101279.21
2022-12-03T16:09:33.543Z,101283.61
2022-12-03T16:14:34.960Z,101283.55
2022-12-03T16:19:36.394Z,101281.63
2022-12-03T16:24:37.776Z,101283.56
2022-12-03T16:29:40.135Z,101283.86
2022-12-03T16:34:41.697Z,101282.27
2022-12-03T16:39:42.883Z,101283.69
2022-12-03T16:45:04.693Z,101281.67
2022-12-03T16:50:09.133Z,101291.71
2022-12-03T16:55:10.897Z,101299.39
2022-12-03T17:00:13.283Z,101301.70
2022-12-03T17:05:14.345Z,101298.64
2022-12-03T17:10:15.438Z,101299.77
2022-12-03T17:15:16.608Z,101296.75
2022-12-03T17:20:18.123Z,101289.69
2022-12-03T17:25:19.362Z,101297.59
2022-12-03T17:30:20.855Z,101302.20
2022-12-03T17:35:22.022Z,101301.55
2022-12-03T17:40:23.184Z,101303.45
2022-12-03T17:45:24.408Z,101303.14
2022-12-03T17:50:27.083Z,101301.79
2022-12-03T17:55:38.376Z,101295.05
2022-12-03T18:00:44.675Z,101294.27
2022-12-03T18:05:45.774Z,101292.27
2022-12-03T18:10:47.870Z,101295.73
2022-12-03T18:15:48.982Z,101296.69
2022-12-03T18:20:52.404Z,101294.91
2022-12-03T18:25:54.448Z,101291.66
2022-12-03T18:30:55.514Z,101294.91
2022-12-03T18:35:57.449Z,101296.14
2022-12-03T18:40:59.130Z,101297.02
2022-12-03T18:46:00.715Z,101292.70
2022-12-03T18:51:04.484Z,101285.27
2022-12-03T18:56:06.327Z,101282.80
2022-12-03T19:01:15.112Z,101279.42
2022-12-03T19:06:20.423Z,101279.91
2022-12-03T19:11:21.552Z,101275.89
2022-12-03T19:16:22.847Z,101276.24
2022-12-03T19:21:24.049Z,101286.36
2022-12-03T19:26:26.588Z,101289.69
2022-12-03T19:31:29.929Z,101289.24
2022-12-03T19:36:31.400Z,101290.56
2022-12-03T19:41:32.639Z,101293.77
2022-12-03T19:46:34.030Z,101292.38
2022-12-03T19:51:35.899Z,101296.44
2022-12-03T19:56:37.387Z,101299.96
2022-12-03T20:01:39.948Z,101304.21
2022-12-03T20:06:41.250Z,101305.73
2022-12-03T20:11:43.826Z,101303.05
2022-12-03T20:16:46.161Z,101300.88
2022-12-03T20:21:47.247Z,101298.69
2022-12-03T20:26:48.272Z,101299.67
2022-12-03T20:31:49.498Z,101294.95
2022-12-03T20:36:50.789Z,101299.27
2022-12-03T20:41:51.755Z,101301.00
2022-12-03T20:46:53.301Z,101306.03
2022-12-03T20:51:54.383Z,101298.37
2022-12-03T20:56:55.865Z,101294.38
2022-12-03T21:01:57.076Z,101299.70
2022-12-03T21:06:58.475Z,101293.93
2022-12-03T21:11:59.491Z,101288.32
2022-12-03T21:17:09.613Z,101287.38
2022-12-03T21:22:11.014Z,101289.65
2022-12-03T21:27:14.615Z,101287.22
2022-12-03T21:32:19.475Z,101280.43
2022-12-03T21:37:20.500Z,101276.25
2022-12-03T21:42:35.629Z,101273.27
2022-12-03T21:47:38.135Z,101271.13
2022-12-03T21:52:39.839Z,101276.55
2022-12-03T21:57:40.872Z,101276.35
2022-12-03T22:02:41.930Z,101279.40
2022-12-03T22:07:43.305Z,101282.61
2022-12-03T22:12:44.394Z,101292.14
2022-12-03T22:17:46.084Z,101289.89
2022-12-03T22:22:47.248Z,101288.70
2022-12-03T22:27:48.725Z,101285.33
2022-12-03T22:32:49.871Z,101291.38
2022-12-03T22:37:50.960Z,101292.13
2022-12-03T22:42:52.003Z,101294.21
2022-12-03T22:47:53.062Z,101288.58
2022-12-03T22:52:54.104Z,101279.95
2022-12-03T22:57:55.311Z,101278.91
2022-12-03T23:02:56.658Z,101281.53
2022-12-03T23:07:58.253Z,101284.12
2022-12-03T23:12:59.690Z,101281.34
2022-12-03T23:18:00.924Z,101277.89
2022-12-03T23:23:02.260Z,101284.81
2022-12-03T23:28:04.495Z,101279.19
2022-12-03T23:33:05.935Z,101273.86
2022-12-03T23:38:07.075Z,101277.24
2022-12-03T23:43:08.092Z,101279.29
2022-12-03T23:48:09.406Z,101276.54
2022-12-03T23:53:10.483Z,101280.38
2022-12-03T23:58:11.527Z,101281.27
